sensor_id;sensor_type;location;lat;lon;timestamp;temperature;humidity
8707;DHT22;4390;49.302;9.306;2023-04-02T00:06:33;8.70;98.30
8707;DHT22;4390;49.302;9.306;2023-04-02T00:11:44;8.30;98.30
8707;DHT22;4390;49.302;9.306;2023-04-02T00:14:30;8.30;98.30
8707;DHT22;4390;49.302;9.306;2023-04-02T00:16:59;8.30;98.30
8707;DHT22;4390;49.302;9.306;2023-04-02T00:19:37;8.30;98.30
8707;DHT22;4390;49.302;9.306;2023-04-02T00:22:11;8.40;98.30
8707;DHT22;4390;49.302;9.306;2023-04-02T00:24:39;8.50;98.30
8707;DHT22;4390;49.302;9.306;2023-04-02T00:27:10;8.50;98.30
8707;DHT22;4390;49.302;9.306;2023-04-02T00:29:45;8.40;98.30
8707;DHT22;4390;49.302;9.306;2023-04-02T00:32:20;8.40;98.30
8707;DHT22;4390;49.302;9.306;2023-04-02T00:34:47;8.40;98.30
8707;DHT22;4390;49.302;9.306;2023-04-02T00:37:17;8.50;98.30
8707;DHT22;4390;49.302;9.306;2023-04-02T00:40:41;8.60;98.30
8707;DHT22;4390;49.302;9.306;2023-04-02T00:42:43;8.70;98.30
8707;DHT22;4390;49.302;9.306;2023-04-02T00:45:26;8.70;98.30
8707;DHT22;4390;49.302;9.306;2023-04-02T00:47:56;8.80;98.30
8707;DHT22;4390;49.302;9.306;2023-04-02T00:50:33;8.70;98.30
8707;DHT22;4390;49.302;9.306;2023-04-02T00:53:09;8.70;98.30
8707;DHT22;4390;49.302;9.306;2023-04-02T00:55:38;8.60;98.30
8707;DHT22;4390;49.302;9.306;2023-04-02T00:58:27;8.50;98.30
8707;DHT22;4390;49.302;9.306;2023-04-02T01:00:55;8.60;98.30
8707;DHT22;4390;49.302;9.306;2023-04-02T01:03:54;8.60;98.30
8707;DHT22;4390;49.302;9.306;2023-04-02T01:06:26;8.60;98.30
8707;DHT22;4390;49.302;9.306;2023-04-02T01:09:14;8.30;98.30
8707;DHT22;4390;49.302;9.306;2023-04-02T01:11:50;8.40;98.30
8707;DHT22;4390;49.302;9.306;2023-04-02T01:16:57;8.50;98.30
8707;DHT22;4390;49.302;9.306;2023-04-02T01:19:39;8.30;98.30
8707;DHT22;4390;49.302;9.306;2023-04-02T01:22:20;8.30;98.30
8707;DHT22;4390;49.302;9.306;2023-04-02T01:24:48;8.20;98.30
8707;DHT22;4390;49.302;9.306;2023-04-02T01:27:28;8.20;98.30
8707;DHT22;4390;49.302;9.306;2023-04-02T01:29:57;8.20;98.30
8707;DHT22;4390;49.302;9.306;2023-04-02T01:32:27;8.20;98.30
8707;DHT22;4390;49.302;9.306;2023-04-02T01:34:56;8.30;98.30
8707;DHT22;4390;49.302;9.306;2023-04-02T01:37:51;8.40;98.30
8707;DHT22;4390;49.302;9.306;2023-04-02T01:40:44;8.50;98.30
8707;DHT22;4390;49.302;9.306;2023-04-02T01:43:32;8.30;98.30
8707;DHT22;4390;49.302;9.306;2023-04-02T01:48:53;8.40;98.30
8707;DHT22;4390;49.302;9.306;2023-04-02T01:51:44;8.50;98.30
8707;DHT22;4390;49.302;9.306;2023-04-02T01:54:16;8.50;98.30
8707;DHT22;4390;49.302;9.306;2023-04-02T01:56:44;8.50;98.30
8707;DHT22;4390;49.302;9.306;2023-04-02T01:59:16;8.50;98.30
8707;DHT22;4390;49.302;9.306;2023-04-02T02:02:02;8.50;98.30
8707;DHT22;4390;49.302;9.306;2023-04-02T02:04:32;8.50;98.30
8707;DHT22;4390;49.302;9.306;2023-04-02T02:07:14;8.50;98.30
8707;DHT22;4390;49.302;9.306;2023-04-02T02:09:45;8.50;98.30
8707;DHT22;4390;49.302;9.306;2023-04-02T02:12:14;8.50;98.30
8707;DHT22;4390;49.302;9.306;2023-04-02T02:14:50;8.40;98.30
8707;DHT22;4390;49.302;9.306;2023-04-02T02:17:26;8.50;98.30
8707;DHT22;4390;49.302;9.306;2023-04-02T02:19:58;8.60;98.30
8707;DHT22;4390;49.302;9.306;2023-04-02T02:24:59;8.60;98.30
8707;DHT22;4390;49.302;9.306;2023-04-02T02:33:06;8.50;98.30
8707;DHT22;4390;49.302;9.306;2023-04-02T02:38:56;8.60;98.30
8707;DHT22;4390;49.302;9.306;2023-04-02T02:44:23;8.80;98.30
8707;DHT22;4390;49.302;9.306;2023-04-02T02:47:15;8.70;98.30
8707;DHT22;4390;49.302;9.306;2023-04-02T02:49:47;8.60;98.30
8707;DHT22;4390;49.302;9.306;2023-04-02T02:52:25;8.50;98.30
8707;DHT22;4390;49.302;9.306;2023-04-02T02:57:45;8.50;98.30
8707;DHT22;4390;49.302;9.306;2023-04-02T03:00:14;8.60;98.30
8707;DHT22;4390;49.302;9.306;2023-04-02T03:02:44;8.60;98.30
8707;DHT22;4390;49.302;9.306;2023-04-02T03:05:17;8.50;98.30
8707;DHT22;4390;49.302;9.306;2023-04-02T03:07:49;8.50;98.30
8707;DHT22;4390;49.302;9.306;2023-04-02T03:10:41;8.50;98.30
8707;DHT22;4390;49.302;9.306;2023-04-02T03:13:29;8.50;98.30
8707;DHT22;4390;49.302;9.306;2023-04-02T03:16:09;8.50;98.30
8707;DHT22;4390;49.302;9.306;2023-04-02T03:21:38;8.50;98.30
8707;DHT22;4390;49.302;9.306;2023-04-02T03:26:51;8.60;98.30
8707;DHT22;4390;49.302;9.306;2023-04-02T03:29:25;8.50;98.30
8707;DHT22;4390;49.302;9.306;2023-04-02T03:31:58;8.50;98.30
8707;DHT22;4390;49.302;9.306;2023-04-02T03:34:32;8.60;98.30
8707;DHT22;4390;49.302;9.306;2023-04-02T03:37:11;8.60;98.30
8707;DHT22;4390;49.302;9.306;2023-04-02T03:40:09;8.70;98.30
8707;DHT22;4390;49.302;9.306;2023-04-02T03:42:45;8.60;98.30
8707;DHT22;4390;49.302;9.306;2023-04-02T03:45:27;8.60;98.30
8707;DHT22;4390;49.302;9.306;2023-04-02T03:48:07;8.60;98.30
8707;DHT22;4390;49.302;9.306;2023-04-02T03:50:45;8.70;98.30
8707;DHT22;4390;49.302;9.306;2023-04-02T03:53:12;8.70;98.30
8707;DHT22;4390;49.302;9.306;2023-04-02T03:55:41;8.70;98.30
8707;DHT22;4390;49.302;9.306;2023-04-02T04:00:53;8.80;98.30
8707;DHT22;4390;49.302;9.306;2023-04-02T04:03:30;8.70;98.30
8707;DHT22;4390;49.302;9.306;2023-04-02T04:06:09;8.70;98.30
8707;DHT22;4390;49.302;9.306;2023-04-02T04:11:13;8.70;98.30
8707;DHT22;4390;49.302;9.306;2023-04-02T04:16:32;8.70;98.30
8707;DHT22;4390;49.302;9.306;2023-04-02T04:22:27;8.70;98.30
8707;DHT22;4390;49.302;9.306;2023-04-02T04:25:23;8.60;98.30
8707;DHT22;4390;49.302;9.306;2023-04-02T04:28:05;8.50;98.30
8707;DHT22;4390;49.302;9.306;2023-04-02T04:30:52;8.50;98.30
8707;DHT22;4390;49.302;9.306;2023-04-02T04:33:33;8.60;98.30
8707;DHT22;4390;49.302;9.306;2023-04-02T04:36:27;8.60;98.30
8707;DHT22;4390;49.302;9.306;2023-04-02T04:39:07;8.80;98.30
8707;DHT22;4390;49.302;9.306;2023-04-02T04:41:44;8.80;98.30
8707;DHT22;4390;49.302;9.306;2023-04-02T04:44:27;8.80;98.30
8707;DHT22;4390;49.302;9.306;2023-04-02T04:47:06;8.90;98.30
8707;DHT22;4390;49.302;9.306;2023-04-02T04:49:49;9.00;98.30
8707;DHT22;4390;49.302;9.306;2023-04-02T04:52:32;8.80;98.30
8707;DHT22;4390;49.302;9.306;2023-04-02T04:57:50;9.00;98.30
8707;DHT22;4390;49.302;9.306;2023-04-02T05:00:41;9.00;98.30
8707;DHT22;4390;49.302;9.306;2023-04-02T05:03:25;8.90;98.30
8707;DHT22;4390;49.302;9.306;2023-04-02T05:06:00;9.10;98.30
8707;DHT22;4390;49.302;9.306;2023-04-02T05:08:32;9.10;98.30
8707;DHT22;4390;49.302;9.306;2023-04-02T05:11:09;9.10;98.30
8707;DHT22;4390;49.302;9.306;2023-04-02T05:16:40;8.90;98.30
8707;DHT22;4390;49.302;9.306;2023-04-02T05:19:13;8.90;98.30
8707;DHT22;4390;49.302;9.306;2023-04-02T05:21:53;8.80;98.30
8707;DHT22;4390;49.302;9.306;2023-04-02T05:27:43;8.90;98.30
8707;DHT22;4390;49.302;9.306;2023-04-02T05:30:01;8.90;98.30
8707;DHT22;4390;49.302;9.306;2023-04-02T05:32:35;8.90;98.30
8707;DHT22;4390;49.302;9.306;2023-04-02T05:35:04;8.90;98.30
8707;DHT22;4390;49.302;9.306;2023-04-02T05:37:37;8.90;98.30
8707;DHT22;4390;49.302;9.306;2023-04-02T05:40:18;8.90;98.30
8707;DHT22;4390;49.302;9.306;2023-04-02T05:42:49;9.10;98.30
8707;DHT22;4390;49.302;9.306;2023-04-02T05:45:24;9.10;98.30
8707;DHT22;4390;49.302;9.306;2023-04-02T05:48:04;9.00;98.30
8707;DHT22;4390;49.302;9.306;2023-04-02T05:50:44;8.80;98.30
8707;DHT22;4390;49.302;9.306;2023-04-02T05:53:26;8.90;98.30
8707;DHT22;4390;49.302;9.306;2023-04-02T05:58:38;8.80;98.30
8707;DHT22;4390;49.302;9.306;2023-04-02T06:01:19;8.90;98.30
8707;DHT22;4390;49.302;9.306;2023-04-02T06:03:58;8.90;98.30
8707;DHT22;4390;49.302;9.306;2023-04-02T06:11:48;9.00;98.30
8707;DHT22;4390;49.302;9.306;2023-04-02T06:14:17;9.10;98.30
8707;DHT22;4390;49.302;9.306;2023-04-02T06:16:45;9.00;98.30
8707;DHT22;4390;49.302;9.306;2023-04-02T06:19:26;9.00;98.30
8707;DHT22;4390;49.302;9.306;2023-04-02T06:22:06;9.00;98.30
8707;DHT22;4390;49.302;9.306;2023-04-02T06:24:36;9.10;98.30
8707;DHT22;4390;49.302;9.306;2023-04-02T06:27:06;9.20;98.30
8707;DHT22;4390;49.302;9.306;2023-04-02T06:29:38;9.30;98.30
8707;DHT22;4390;49.302;9.306;2023-04-02T06:32:11;9.30;98.30
8707;DHT22;4390;49.302;9.306;2023-04-02T06:34:42;9.40;98.30
8707;DHT22;4390;49.302;9.306;2023-04-02T06:37:34;9.40;98.30
8707;DHT22;4390;49.302;9.306;2023-04-02T06:40:37;9.20;98.30
8707;DHT22;4390;49.302;9.306;2023-04-02T06:43:19;9.30;98.30
8707;DHT22;4390;49.302;9.306;2023-04-02T06:46:12;9.30;98.30
8707;DHT22;4390;49.302;9.306;2023-04-02T06:49:13;9.20;98.30
8707;DHT22;4390;49.302;9.306;2023-04-02T06:51:42;9.30;98.30
8707;DHT22;4390;49.302;9.306;2023-04-02T06:54:17;9.30;98.30
8707;DHT22;4390;49.302;9.306;2023-04-02T06:56:50;9.30;98.30
8707;DHT22;4390;49.302;9.306;2023-04-02T06:59:33;9.30;98.30
8707;DHT22;4390;49.302;9.306;2023-04-02T07:02:23;9.30;98.30
8707;DHT22;4390;49.302;9.306;2023-04-02T07:04:52;9.30;98.30
8707;DHT22;4390;49.302;9.306;2023-04-02T07:07:21;9.30;98.30
8707;DHT22;4390;49.302;9.306;2023-04-02T07:09:48;9.40;98.30
8707;DHT22;4390;49.302;9.306;2023-04-02T07:12:21;9.40;98.30
8707;DHT22;4390;49.302;9.306;2023-04-02T07:14:49;9.40;98.30
8707;DHT22;4390;49.302;9.306;2023-04-02T07:17:17;9.40;98.30
8707;DHT22;4390;49.302;9.306;2023-04-02T07:19:44;9.40;98.30
8707;DHT22;4390;49.302;9.306;2023-04-02T07:22:17;9.40;98.30
8707;DHT22;4390;49.302;9.306;2023-04-02T07:24:49;9.40;98.30
8707;DHT22;4390;49.302;9.306;2023-04-02T07:27:15;9.50;98.30
8707;DHT22;4390;49.302;9.306;2023-04-02T07:29:42;9.40;98.30
8707;DHT22;4390;49.302;9.306;2023-04-02T07:32:10;9.50;98.30
8707;DHT22;4390;49.302;9.306;2023-04-02T07:34:38;9.40;98.30
8707;DHT22;4390;49.302;9.306;2023-04-02T07:37:08;9.30;98.30
8707;DHT22;4390;49.302;9.306;2023-04-02T07:39:35;9.40;98.30
8707;DHT22;4390;49.302;9.306;2023-04-02T07:42:05;9.50;98.30
8707;DHT22;4390;49.302;9.306;2023-04-02T07:44:31;9.60;98.30
8707;DHT22;4390;49.302;9.306;2023-04-02T07:46:58;9.50;98.30
8707;DHT22;4390;49.302;9.306;2023-04-02T07:49:25;9.60;98.30
8707;DHT22;4390;49.302;9.306;2023-04-02T07:51:52;9.80;98.30
8707;DHT22;4390;49.302;9.306;2023-04-02T07:54:19;9.90;98.30
8707;DHT22;4390;49.302;9.306;2023-04-02T07:56:45;9.90;98.30
8707;DHT22;4390;49.302;9.306;2023-04-02T07:59:12;10.00;98.30
8707;DHT22;4390;49.302;9.306;2023-04-02T08:01:39;9.90;98.30
8707;DHT22;4390;49.302;9.306;2023-04-02T08:04:19;10.10;98.30
8707;DHT22;4390;49.302;9.306;2023-04-02T08:06:47;10.00;98.30
8707;DHT22;4390;49.302;9.306;2023-04-02T08:09:15;10.20;98.30
8707;DHT22;4390;49.302;9.306;2023-04-02T08:11:42;10.30;98.30
8707;DHT22;4390;49.302;9.306;2023-04-02T08:14:09;10.30;98.30
8707;DHT22;4390;49.302;9.306;2023-04-02T08:16:48;10.40;98.30
8707;DHT22;4390;49.302;9.306;2023-04-02T08:19:15;10.30;98.30
8707;DHT22;4390;49.302;9.306;2023-04-02T08:21:43;10.20;98.30
8707;DHT22;4390;49.302;9.306;2023-04-02T08:24:10;10.20;98.30
8707;DHT22;4390;49.302;9.306;2023-04-02T08:26:36;10.30;98.30
8707;DHT22;4390;49.302;9.306;2023-04-02T08:29:04;10.20;98.30
8707;DHT22;4390;49.302;9.306;2023-04-02T08:31:30;10.20;98.30
8707;DHT22;4390;49.302;9.306;2023-04-02T08:33:57;10.20;98.30
8707;DHT22;4390;49.302;9.306;2023-04-02T08:36:28;10.30;98.30
8707;DHT22;4390;49.302;9.306;2023-04-02T08:38:56;10.00;98.30
8707;DHT22;4390;49.302;9.306;2023-04-02T08:41:25;9.90;98.30
8707;DHT22;4390;49.302;9.306;2023-04-02T08:44:17;10.10;98.30
8707;DHT22;4390;49.302;9.306;2023-04-02T08:46:55;10.10;98.30
8707;DHT22;4390;49.302;9.306;2023-04-02T08:51:59;10.20;98.30
8707;DHT22;4390;49.302;9.306;2023-04-02T08:54:30;10.30;98.30
8707;DHT22;4390;49.302;9.306;2023-04-02T08:59:45;10.30;98.30
8707;DHT22;4390;49.302;9.306;2023-04-02T09:04:55;10.50;98.30
8707;DHT22;4390;49.302;9.306;2023-04-02T09:07:23;10.50;98.30
8707;DHT22;4390;49.302;9.306;2023-04-02T09:09:50;10.50;98.30
8707;DHT22;4390;49.302;9.306;2023-04-02T09:12:25;10.50;98.30
8707;DHT22;4390;49.302;9.306;2023-04-02T09:15:02;10.60;98.30
8707;DHT22;4390;49.302;9.306;2023-04-02T09:17:31;10.40;98.30
8707;DHT22;4390;49.302;9.306;2023-04-02T09:20:16;10.70;98.30
8707;DHT22;4390;49.302;9.306;2023-04-02T09:22:48;10.40;98.30
8707;DHT22;4390;49.302;9.306;2023-04-02T09:25:40;10.40;98.30
8707;DHT22;4390;49.302;9.306;2023-04-02T09:28:12;10.40;98.30
8707;DHT22;4390;49.302;9.306;2023-04-02T09:33:44;10.50;98.30
8707;DHT22;4390;49.302;9.306;2023-04-02T09:36:39;10.40;98.30
8707;DHT22;4390;49.302;9.306;2023-04-02T09:39:18;10.40;98.30
8707;DHT22;4390;49.302;9.306;2023-04-02T09:41:46;10.40;98.30
8707;DHT22;4390;49.302;9.306;2023-04-02T09:44:28;10.50;98.30
8707;DHT22;4390;49.302;9.306;2023-04-02T09:46:59;10.50;98.30
8707;DHT22;4390;49.302;9.306;2023-04-02T09:49:32;10.60;98.30
8707;DHT22;4390;49.302;9.306;2023-04-02T09:54:37;10.90;98.10
8707;DHT22;4390;49.302;9.306;2023-04-02T09:57:22;11.00;98.10
8707;DHT22;4390;49.302;9.306;2023-04-02T10:03:24;11.20;97.90
8707;DHT22;4390;49.302;9.306;2023-04-02T10:06:09;11.10;97.60
8707;DHT22;4390;49.302;9.306;2023-04-02T10:08:39;11.10;98.00
8707;DHT22;4390;49.302;9.306;2023-04-02T10:11:12;11.00;97.90
8707;DHT22;4390;49.302;9.306;2023-04-02T10:13:59;10.80;98.30
8707;DHT22;4390;49.302;9.306;2023-04-02T10:22:16;11.30;97.60
8707;DHT22;4390;49.302;9.306;2023-04-02T10:24:43;11.40;97.30
8707;DHT22;4390;49.302;9.306;2023-04-02T10:27:23;11.60;97.30
8707;DHT22;4390;49.302;9.306;2023-04-02T10:30:20;11.50;96.80
8707;DHT22;4390;49.302;9.306;2023-04-02T10:33:04;11.60;97.20
8707;DHT22;4390;49.302;9.306;2023-04-02T10:36:03;11.50;96.60
8707;DHT22;4390;49.302;9.306;2023-04-02T10:38:53;10.80;96.60
8707;DHT22;4390;49.302;9.306;2023-04-02T10:41:36;9.80;98.30
8707;DHT22;4390;49.302;9.306;2023-04-02T10:47:15;9.00;98.30
8707;DHT22;4390;49.302;9.306;2023-04-02T10:52:32;9.20;98.30
8707;DHT22;4390;49.302;9.306;2023-04-02T10:55:17;9.20;98.30
8707;DHT22;4390;49.302;9.306;2023-04-02T10:57:47;9.30;98.30
8707;DHT22;4390;49.302;9.306;2023-04-02T11:00:26;9.30;98.30
8707;DHT22;4390;49.302;9.306;2023-04-02T11:03:48;9.30;98.30
8707;DHT22;4390;49.302;9.306;2023-04-02T11:05:57;9.20;98.30
8707;DHT22;4390;49.302;9.306;2023-04-02T11:08:38;9.10;98.30
8707;DHT22;4390;49.302;9.306;2023-04-02T11:11:12;9.10;98.30
8707;DHT22;4390;49.302;9.306;2023-04-02T11:13:56;9.20;98.30
8707;DHT22;4390;49.302;9.306;2023-04-02T11:16:24;9.30;98.30
8707;DHT22;4390;49.302;9.306;2023-04-02T11:29:46;9.00;98.30
8707;DHT22;4390;49.302;9.306;2023-04-02T11:32:38;9.10;98.30
8707;DHT22;4390;49.302;9.306;2023-04-02T11:40:42;9.40;98.30
8707;DHT22;4390;49.302;9.306;2023-04-02T11:43:49;9.40;98.30
8707;DHT22;4390;49.302;9.306;2023-04-02T11:48:44;9.40;98.30
8707;DHT22;4390;49.302;9.306;2023-04-02T11:51:49;9.50;98.30
8707;DHT22;4390;49.302;9.306;2023-04-02T11:54:30;9.30;98.30
8707;DHT22;4390;49.302;9.306;2023-04-02T12:02:59;9.00;98.30
8707;DHT22;4390;49.302;9.306;2023-04-02T12:05:39;8.70;98.30
8707;DHT22;4390;49.302;9.306;2023-04-02T12:08:20;8.70;98.30
8707;DHT22;4390;49.302;9.306;2023-04-02T12:11:02;9.10;98.30
8707;DHT22;4390;49.302;9.306;2023-04-02T12:16:11;8.80;98.30
8707;DHT22;4390;49.302;9.306;2023-04-02T12:18:49;9.00;98.30
8707;DHT22;4390;49.302;9.306;2023-04-02T12:21:25;8.90;98.30
8707;DHT22;4390;49.302;9.306;2023-04-02T12:23:56;8.90;98.30
8707;DHT22;4390;49.302;9.306;2023-04-02T12:28:52;8.80;98.30
8707;DHT22;4390;49.302;9.306;2023-04-02T12:31:20;8.90;98.30
8707;DHT22;4390;49.302;9.306;2023-04-02T12:33:51;9.00;98.30
8707;DHT22;4390;49.302;9.306;2023-04-02T12:36:21;9.10;98.30
8707;DHT22;4390;49.302;9.306;2023-04-02T12:38:56;9.00;98.30
8707;DHT22;4390;49.302;9.306;2023-04-02T12:41:24;9.00;98.30
8707;DHT22;4390;49.302;9.306;2023-04-02T12:44:04;9.00;98.30
8707;DHT22;4390;49.302;9.306;2023-04-02T12:46:37;8.90;98.30
8707;DHT22;4390;49.302;9.306;2023-04-02T12:51:48;8.80;98.30
8707;DHT22;4390;49.302;9.306;2023-04-02T12:54:17;8.70;98.30
8707;DHT22;4390;49.302;9.306;2023-04-02T12:56:48;8.70;98.30
8707;DHT22;4390;49.302;9.306;2023-04-02T12:59:29;8.80;98.30
8707;DHT22;4390;49.302;9.306;2023-04-02T13:02:23;9.00;98.30
8707;DHT22;4390;49.302;9.306;2023-04-02T13:04:53;9.00;97.80
8707;DHT22;4390;49.302;9.306;2023-04-02T13:07:24;9.00;98.30
8707;DHT22;4390;49.302;9.306;2023-04-02T13:09:54;9.10;98.30
8707;DHT22;4390;49.302;9.306;2023-04-02T13:12:36;9.20;98.30
8707;DHT22;4390;49.302;9.306;2023-04-02T13:15:07;9.10;97.80
8707;DHT22;4390;49.302;9.306;2023-04-02T13:20:41;9.40;97.60
8707;DHT22;4390;49.302;9.306;2023-04-02T13:23:44;9.50;97.80
8707;DHT22;4390;49.302;9.306;2023-04-02T13:26:27;9.30;97.80
8707;DHT22;4390;49.302;9.306;2023-04-02T13:28:59;9.10;98.30
8707;DHT22;4390;49.302;9.306;2023-04-02T13:31:27;9.10;97.60
8707;DHT22;4390;49.302;9.306;2023-04-02T13:33:55;9.30;97.40
8707;DHT22;4390;49.302;9.306;2023-04-02T13:36:22;9.40;96.90
8707;DHT22;4390;49.302;9.306;2023-04-02T13:38:49;9.30;96.50
8707;DHT22;4390;49.302;9.306;2023-04-02T13:41:25;9.30;96.80
8707;DHT22;4390;49.302;9.306;2023-04-02T13:44:00;9.00;97.10
8707;DHT22;4390;49.302;9.306;2023-04-02T13:46:30;9.10;97.10
8707;DHT22;4390;49.302;9.306;2023-04-02T13:48:58;9.10;97.10
8707;DHT22;4390;49.302;9.306;2023-04-02T13:51:35;9.00;96.60
8707;DHT22;4390;49.302;9.306;2023-04-02T13:54:08;9.00;96.60
8707;DHT22;4390;49.302;9.306;2023-04-02T13:56:36;8.90;96.20
8707;DHT22;4390;49.302;9.306;2023-04-02T13:59:04;8.90;96.70
8707;DHT22;4390;49.302;9.306;2023-04-02T14:01:31;9.00;96.80
8707;DHT22;4390;49.302;9.306;2023-04-02T14:03:58;8.90;96.50
8707;DHT22;4390;49.302;9.306;2023-04-02T14:09:46;9.10;96.20
8707;DHT22;4390;49.302;9.306;2023-04-02T14:20:57;8.80;95.90
8707;DHT22;4390;49.302;9.306;2023-04-02T14:29:29;9.20;95.90
8707;DHT22;4390;49.302;9.306;2023-04-02T14:32:05;9.00;96.00
8707;DHT22;4390;49.302;9.306;2023-04-02T14:37:45;8.50;97.00
8707;DHT22;4390;49.302;9.306;2023-04-02T14:40:20;8.30;97.20
8707;DHT22;4390;49.302;9.306;2023-04-02T14:42:52;8.30;97.60
8707;DHT22;4390;49.302;9.306;2023-04-02T14:48:02;8.40;96.90
8707;DHT22;4390;49.302;9.306;2023-04-02T14:50:37;8.40;97.20
8707;DHT22;4390;49.302;9.306;2023-04-02T14:53:28;8.40;96.80
8707;DHT22;4390;49.302;9.306;2023-04-02T14:55:58;8.20;97.30
8707;DHT22;4390;49.302;9.306;2023-04-02T14:58:33;8.20;96.20
8707;DHT22;4390;49.302;9.306;2023-04-02T15:01:10;8.20;97.00
8707;DHT22;4390;49.302;9.306;2023-04-02T15:03:49;8.50;96.20
8707;DHT22;4390;49.302;9.306;2023-04-02T15:06:22;8.30;95.60
8707;DHT22;4390;49.302;9.306;2023-04-02T15:08:59;8.30;95.70
8707;DHT22;4390;49.302;9.306;2023-04-02T15:11:38;8.30;95.20
8707;DHT22;4390;49.302;9.306;2023-04-02T15:14:37;8.00;95.50
8707;DHT22;4390;49.302;9.306;2023-04-02T15:17:07;8.10;96.00
8707;DHT22;4390;49.302;9.306;2023-04-02T15:19:35;8.10;95.40
8707;DHT22;4390;49.302;9.306;2023-04-02T15:25:39;8.20;94.50
8707;DHT22;4390;49.302;9.306;2023-04-02T15:28:07;8.20;94.00
8707;DHT22;4390;49.302;9.306;2023-04-02T15:30:43;8.00;94.30
8707;DHT22;4390;49.302;9.306;2023-04-02T15:38:48;8.10;94.60
8707;DHT22;4390;49.302;9.306;2023-04-02T15:41:28;8.30;93.90
8707;DHT22;4390;49.302;9.306;2023-04-02T15:44:11;8.30;93.90
8707;DHT22;4390;49.302;9.306;2023-04-02T15:49:38;8.40;94.00
8707;DHT22;4390;49.302;9.306;2023-04-02T15:52:17;8.50;93.10
8707;DHT22;4390;49.302;9.306;2023-04-02T16:00:53;8.10;93.20
8707;DHT22;4390;49.302;9.306;2023-04-02T16:03:47;7.90;94.10
8707;DHT22;4390;49.302;9.306;2023-04-02T16:06:34;7.60;95.10
8707;DHT22;4390;49.302;9.306;2023-04-02T16:11:43;7.10;96.40
8707;DHT22;4390;49.302;9.306;2023-04-02T16:14:30;7.10;96.90
8707;DHT22;4390;49.302;9.306;2023-04-02T16:17:04;7.40;96.60
8707;DHT22;4390;49.302;9.306;2023-04-02T16:20:05;7.40;96.10
8707;DHT22;4390;49.302;9.306;2023-04-02T16:22:36;7.30;95.80
8707;DHT22;4390;49.302;9.306;2023-04-02T16:25:24;7.30;95.60
8707;DHT22;4390;49.302;9.306;2023-04-02T16:31:23;7.40;94.70
8707;DHT22;4390;49.302;9.306;2023-04-02T16:37:09;7.20;94.40
8707;DHT22;4390;49.302;9.306;2023-04-02T16:39:44;7.30;94.10
8707;DHT22;4390;49.302;9.306;2023-04-02T16:42:38;7.30;93.90
8707;DHT22;4390;49.302;9.306;2023-04-02T16:45:22;7.20;94.10
8707;DHT22;4390;49.302;9.306;2023-04-02T16:50:57;7.00;93.40
8707;DHT22;4390;49.302;9.306;2023-04-02T16:56:54;6.90;93.60
8707;DHT22;4390;49.302;9.306;2023-04-02T17:02:34;6.90;92.80
8707;DHT22;4390;49.302;9.306;2023-04-02T17:05:28;6.70;92.90
8707;DHT22;4390;49.302;9.306;2023-04-02T17:08:23;6.40;92.30
8707;DHT22;4390;49.302;9.306;2023-04-02T17:13:38;6.20;93.00
8707;DHT22;4390;49.302;9.306;2023-04-02T17:16:34;6.20;92.60
8707;DHT22;4390;49.302;9.306;2023-04-02T17:19:09;6.30;92.50
8707;DHT22;4390;49.302;9.306;2023-04-02T17:21:39;6.20;92.10
8707;DHT22;4390;49.302;9.306;2023-04-02T17:24:27;6.10;92.40
8707;DHT22;4390;49.302;9.306;2023-04-02T17:27:28;5.90;92.10
8707;DHT22;4390;49.302;9.306;2023-04-02T17:30:18;5.60;92.40
8707;DHT22;4390;49.302;9.306;2023-04-02T17:32:47;5.60;92.80
8707;DHT22;4390;49.302;9.306;2023-04-02T17:35:21;5.80;92.60
8707;DHT22;4390;49.302;9.306;2023-04-02T17:38:03;5.90;92.30
8707;DHT22;4390;49.302;9.306;2023-04-02T17:43:44;6.00;91.90
8707;DHT22;4390;49.302;9.306;2023-04-02T17:46:34;6.00;91.40
8707;DHT22;4390;49.302;9.306;2023-04-02T17:51:56;5.90;91.30
8707;DHT22;4390;49.302;9.306;2023-04-02T17:57:31;5.60;91.00
8707;DHT22;4390;49.302;9.306;2023-04-02T18:00:28;5.50;91.20
8707;DHT22;4390;49.302;9.306;2023-04-02T18:03:21;5.50;91.10
8707;DHT22;4390;49.302;9.306;2023-04-02T18:09:01;5.30;90.30
8707;DHT22;4390;49.302;9.306;2023-04-02T18:11:42;5.20;90.00
8707;DHT22;4390;49.302;9.306;2023-04-02T18:48:28;5.50;87.60
8707;DHT22;4390;49.302;9.306;2023-04-02T18:51:01;5.50;87.50
8707;DHT22;4390;49.302;9.306;2023-04-02T18:53:33;5.40;87.30
8707;DHT22;4390;49.302;9.306;2023-04-02T18:56:04;5.10;87.90
8707;DHT22;4390;49.302;9.306;2023-04-02T18:58:55;5.00;87.90
8707;DHT22;4390;49.302;9.306;2023-04-02T19:01:30;5.00;88.40
8707;DHT22;4390;49.302;9.306;2023-04-02T19:04:06;5.10;88.60
8707;DHT22;4390;49.302;9.306;2023-04-02T19:06:43;5.20;88.70
8707;DHT22;4390;49.302;9.306;2023-04-02T19:09:17;5.30;87.80
8707;DHT22;4390;49.302;9.306;2023-04-02T19:11:47;5.40;87.70
8707;DHT22;4390;49.302;9.306;2023-04-02T19:14:19;5.40;87.20
8707;DHT22;4390;49.302;9.306;2023-04-02T19:17:21;5.20;87.00
8707;DHT22;4390;49.302;9.306;2023-04-02T19:22:45;5.00;87.80
8707;DHT22;4390;49.302;9.306;2023-04-02T19:25:39;5.30;87.40
8707;DHT22;4390;49.302;9.306;2023-04-02T19:33:35;4.80;87.60
8707;DHT22;4390;49.302;9.306;2023-04-02T19:39:28;5.00;87.30
8707;DHT22;4390;49.302;9.306;2023-04-02T19:47:48;5.00;87.90
8707;DHT22;4390;49.302;9.306;2023-04-02T19:50:16;5.00;88.20
8707;DHT22;4390;49.302;9.306;2023-04-02T19:52:48;5.20;88.20
8707;DHT22;4390;49.302;9.306;2023-04-02T19:55:18;5.20;87.70
8707;DHT22;4390;49.302;9.306;2023-04-02T19:57:46;5.10;88.00
8707;DHT22;4390;49.302;9.306;2023-04-02T20:00:14;5.10;88.10
8707;DHT22;4390;49.302;9.306;2023-04-02T20:02:41;5.20;87.70
8707;DHT22;4390;49.302;9.306;2023-04-02T20:05:08;5.30;87.50
8707;DHT22;4390;49.302;9.306;2023-04-02T20:07:36;5.20;86.60
8707;DHT22;4390;49.302;9.306;2023-04-02T20:10:06;5.10;86.80
8707;DHT22;4390;49.302;9.306;2023-04-02T20:12:39;4.90;86.60
8707;DHT22;4390;49.302;9.306;2023-04-02T20:15:10;4.70;86.50
8707;DHT22;4390;49.302;9.306;2023-04-02T20:17:36;4.80;86.70
8707;DHT22;4390;49.302;9.306;2023-04-02T20:20:04;4.90;86.60
8707;DHT22;4390;49.302;9.306;2023-04-02T20:22:31;4.90;86.70
8707;DHT22;4390;49.302;9.306;2023-04-02T20:24:58;5.00;86.60
8707;DHT22;4390;49.302;9.306;2023-04-02T20:27:25;5.00;86.70
8707;DHT22;4390;49.302;9.306;2023-04-02T20:29:51;4.90;86.40
8707;DHT22;4390;49.302;9.306;2023-04-02T20:32:18;4.90;86.90
8707;DHT22;4390;49.302;9.306;2023-04-02T20:34:45;5.10;86.90
8707;DHT22;4390;49.302;9.306;2023-04-02T20:37:12;5.20;86.70
8707;DHT22;4390;49.302;9.306;2023-04-02T20:39:39;5.30;86.20
8707;DHT22;4390;49.302;9.306;2023-04-02T20:42:06;5.20;86.00
8707;DHT22;4390;49.302;9.306;2023-04-02T20:44:32;5.10;86.40
8707;DHT22;4390;49.302;9.306;2023-04-02T20:46:59;5.10;86.60
8707;DHT22;4390;49.302;9.306;2023-04-02T20:49:27;5.30;86.30
8707;DHT22;4390;49.302;9.306;2023-04-02T20:51:54;5.40;86.00
8707;DHT22;4390;49.302;9.306;2023-04-02T20:54:21;5.10;85.70
8707;DHT22;4390;49.302;9.306;2023-04-02T20:56:48;5.10;86.00
8707;DHT22;4390;49.302;9.306;2023-04-02T20:59:18;4.80;86.30
8707;DHT22;4390;49.302;9.306;2023-04-02T21:01:45;4.80;86.10
8707;DHT22;4390;49.302;9.306;2023-04-02T21:04:12;4.90;86.00
8707;DHT22;4390;49.302;9.306;2023-04-02T21:06:40;5.00;86.20
8707;DHT22;4390;49.302;9.306;2023-04-02T21:09:12;5.10;86.10
8707;DHT22;4390;49.302;9.306;2023-04-02T21:11:40;5.30;85.80
8707;DHT22;4390;49.302;9.306;2023-04-02T21:14:07;5.30;85.70
8707;DHT22;4390;49.302;9.306;2023-04-02T21:16:34;5.20;86.40
8707;DHT22;4390;49.302;9.306;2023-04-02T21:19:04;5.20;85.80
8707;DHT22;4390;49.302;9.306;2023-04-02T21:21:32;5.10;85.10
8707;DHT22;4390;49.302;9.306;2023-04-02T21:24:01;5.00;85.10